sensor_id;sensor_type;location;lat;lon;timestamp;P1;durP1;ratioP1;P2;durP2;ratioP2
69030;SDS011;56083;48.774;8.942;2023-12-20T00:01:50;3.03;;;1.38;;
69030;SDS011;56083;48.774;8.942;2023-12-20T00:04:16;3.42;;;1.52;;
69030;SDS011;56083;48.774;8.942;2023-12-20T00:06:42;3.08;;;1.40;;
69030;SDS011;56083;48.774;8.942;2023-12-20T00:09:09;2.45;;;1.60;;
69030;SDS011;56083;48.774;8.942;2023-12-20T00:11:35;3.67;;;1.52;;
69030;SDS011;56083;48.774;8.942;2023-12-20T00:14:01;3.65;;;1.50;;
69030;SDS011;56083;48.774;8.942;2023-12-20T00:16:27;3.38;;;1.80;;
69030;SDS011;56083;48.774;8.942;2023-12-20T00:18:53;4.50;;;1.45;;
69030;SDS011;56083;48.774;8.942;2023-12-20T00:21:18;5.40;;;1.70;;
69030;SDS011;56083;48.774;8.942;2023-12-20T00:23:44;3.63;;;1.60;;
69030;SDS011;56083;48.774;8.942;2023-12-20T00:26:10;3.22;;;2.05;;
69030;SDS011;56083;48.774;8.942;2023-12-20T00:28:36;3.45;;;1.75;;
69030;SDS011;56083;48.774;8.942;2023-12-20T00:31:03;5.53;;;1.88;;
69030;SDS011;56083;48.774;8.942;2023-12-20T00:33:29;3.13;;;1.60;;
69030;SDS011;56083;48.774;8.942;2023-12-20T00:35:55;4.68;;;1.88;;
69030;SDS011;56083;48.774;8.942;2023-12-20T00:38:21;4.43;;;1.50;;
69030;SDS011;56083;48.774;8.942;2023-12-20T00:40:47;4.03;;;1.80;;
69030;SDS011;56083;48.774;8.942;2023-12-20T00:43:14;3.72;;;1.77;;
69030;SDS011;56083;48.774;8.942;2023-12-20T00:45:40;2.42;;;1.70;;
69030;SDS011;56083;48.774;8.942;2023-12-20T00:48:06;3.63;;;1.80;;
69030;SDS011;56083;48.774;8.942;2023-12-20T00:50:32;3.95;;;1.80;;
69030;SDS011;56083;48.774;8.942;2023-12-20T00:52:59;6.45;;;1.83;;
69030;SDS011;56083;48.774;8.942;2023-12-20T00:55:25;4.95;;;1.83;;
69030;SDS011;56083;48.774;8.942;2023-12-20T00:57:51;5.47;;;1.90;;
69030;SDS011;56083;48.774;8.942;2023-12-20T01:00:18;4.25;;;2.20;;
69030;SDS011;56083;48.774;8.942;2023-12-20T01:02:44;4.28;;;2.35;;
69030;SDS011;56083;48.774;8.942;2023-12-20T01:05:11;6.35;;;2.97;;
69030;SDS011;56083;48.774;8.942;2023-12-20T01:07:37;5.22;;;2.55;;
69030;SDS011;56083;48.774;8.942;2023-12-20T01:10:03;9.38;;;3.42;;
69030;SDS011;56083;48.774;8.942;2023-12-20T01:12:30;5.65;;;2.75;;
69030;SDS011;56083;48.774;8.942;2023-12-20T01:14:55;7.50;;;3.58;;
69030;SDS011;56083;48.774;8.942;2023-12-20T01:17:23;6.68;;;3.20;;
69030;SDS011;56083;48.774;8.942;2023-12-20T01:19:49;5.93;;;3.05;;
69030;SDS011;56083;48.774;8.942;2023-12-20T01:22:15;7.97;;;4.00;;
69030;SDS011;56083;48.774;8.942;2023-12-20T01:24:41;7.43;;;3.60;;
69030;SDS011;56083;48.774;8.942;2023-12-20T01:27:07;8.98;;;3.85;;
69030;SDS011;56083;48.774;8.942;2023-12-20T01:29:33;7.47;;;3.90;;
69030;SDS011;56083;48.774;8.942;2023-12-20T01:31:59;7.28;;;3.67;;
69030;SDS011;56083;48.774;8.942;2023-12-20T01:34:25;7.05;;;3.58;;
69030;SDS011;56083;48.774;8.942;2023-12-20T01:36:51;7.93;;;4.10;;
69030;SDS011;56083;48.774;8.942;2023-12-20T01:39:17;10.82;;;4.95;;
69030;SDS011;56083;48.774;8.942;2023-12-20T01:41:43;11.00;;;5.35;;
69030;SDS011;56083;48.774;8.942;2023-12-20T01:44:10;9.07;;;5.18;;
69030;SDS011;56083;48.774;8.942;2023-12-20T01:46:36;7.47;;;4.40;;
69030;SDS011;56083;48.774;8.942;2023-12-20T01:49:02;7.95;;;4.85;;
69030;SDS011;56083;48.774;8.942;2023-12-20T01:51:28;11.63;;;4.47;;
69030;SDS011;56083;48.774;8.942;2023-12-20T01:53:56;7.80;;;4.40;;
69030;SDS011;56083;48.774;8.942;2023-12-20T01:56:23;7.07;;;4.07;;
69030;SDS011;56083;48.774;8.942;2023-12-20T01:58:49;4.18;;;2.40;;
69030;SDS011;56083;48.774;8.942;2023-12-20T02:01:15;7.13;;;2.88;;
69030;SDS011;56083;48.774;8.942;2023-12-20T02:03:42;2.65;;;1.42;;
69030;SDS011;56083;48.774;8.942;2023-12-20T02:06:08;4.35;;;1.27;;
69030;SDS011;56083;48.774;8.942;2023-12-20T02:08:35;2.83;;;1.10;;
69030;SDS011;56083;48.774;8.942;2023-12-20T02:11:02;2.40;;;0.93;;
69030;SDS011;56083;48.774;8.942;2023-12-20T02:13:29;1.27;;;0.50;;
69030;SDS011;56083;48.774;8.942;2023-12-20T02:15:56;1.02;;;0.55;;
69030;SDS011;56083;48.774;8.942;2023-12-20T02:18:22;0.50;;;0.35;;
69030;SDS011;56083;48.774;8.942;2023-12-20T02:20:48;0.55;;;0.38;;
69030;SDS011;56083;48.774;8.942;2023-12-20T02:23:15;1.08;;;0.25;;
69030;SDS011;56083;48.774;8.942;2023-12-20T02:25:41;0.40;;;0.20;;
69030;SDS011;56083;48.774;8.942;2023-12-20T02:28:07;0.20;;;0.20;;
69030;SDS011;56083;48.774;8.942;2023-12-20T02:30:33;0.10;;;0.10;;
69030;SDS011;56083;48.774;8.942;2023-12-20T02:32:59;0.10;;;0.10;;
69030;SDS011;56083;48.774;8.942;2023-12-20T02:35:26;0.38;;;0.10;;
69030;SDS011;56083;48.774;8.942;2023-12-20T02:37:52;0.30;;;0.20;;
69030;SDS011;56083;48.774;8.942;2023-12-20T02:40:18;0.10;;;0.10;;
69030;SDS011;56083;48.774;8.942;2023-12-20T02:42:44;0.00;;;0.00;;
69030;SDS011;56083;48.774;8.942;2023-12-20T02:45:10;0.20;;;0.10;;
69030;SDS011;56083;48.774;8.942;2023-12-20T02:47:36;0.28;;;0.20;;
69030;SDS011;56083;48.774;8.942;2023-12-20T02:50:02;0.32;;;0.10;;
69030;SDS011;56083;48.774;8.942;2023-12-20T02:52:28;0.10;;;0.10;;
69030;SDS011;56083;48.774;8.942;2023-12-20T02:54:55;0.10;;;0.10;;
69030;SDS011;56083;48.774;8.942;2023-12-20T02:57:21;1.02;;;0.10;;
69030;SDS011;56083;48.774;8.942;2023-12-20T02:59:47;0.15;;;0.15;;
69030;SDS011;56083;48.774;8.942;2023-12-20T03:02:13;0.45;;;0.20;;
69030;SDS011;56083;48.774;8.942;2023-12-20T03:04:40;0.95;;;0.20;;
69030;SDS011;56083;48.774;8.942;2023-12-20T03:07:07;0.20;;;0.20;;
69030;SDS011;56083;48.774;8.942;2023-12-20T03:09:33;0.10;;;0.10;;
69030;SDS011;56083;48.774;8.942;2023-12-20T03:11:59;3.47;;;0.22;;
69030;SDS011;56083;48.774;8.942;2023-12-20T03:14:25;0.32;;;0.20;;
69030;SDS011;56083;48.774;8.942;2023-12-20T03:16:51;2.67;;;0.20;;
69030;SDS011;56083;48.774;8.942;2023-12-20T03:19:18;0.70;;;0.20;;
69030;SDS011;56083;48.774;8.942;2023-12-20T03:21:44;3.60;;;0.20;;
69030;SDS011;56083;48.774;8.942;2023-12-20T03:24:10;1.02;;;0.32;;
69030;SDS011;56083;48.774;8.942;2023-12-20T03:26:36;0.28;;;0.20;;
69030;SDS011;56083;48.774;8.942;2023-12-20T03:29:02;0.55;;;0.20;;
69030;SDS011;56083;48.774;8.942;2023-12-20T03:31:29;0.30;;;0.28;;
69030;SDS011;56083;48.774;8.942;2023-12-20T03:33:55;3.03;;;0.30;;
69030;SDS011;56083;48.774;8.942;2023-12-20T03:36:21;2.13;;;0.28;;
69030;SDS011;56083;48.774;8.942;2023-12-20T03:38:46;0.40;;;0.30;;
69030;SDS011;56083;48.774;8.942;2023-12-20T03:41:13;0.60;;;0.30;;
69030;SDS011;56083;48.774;8.942;2023-12-20T03:43:40;0.50;;;0.30;;
69030;SDS011;56083;48.774;8.942;2023-12-20T03:46:07;1.13;;;0.30;;
69030;SDS011;56083;48.774;8.942;2023-12-20T03:48:33;0.45;;;0.30;;
69030;SDS011;56083;48.774;8.942;2023-12-20T03:50:59;0.35;;;0.20;;
69030;SDS011;56083;48.774;8.942;2023-12-20T03:53:25;1.15;;;0.22;;
69030;SDS011;56083;48.774;8.942;2023-12-20T03:55:51;0.52;;;0.30;;
69030;SDS011;56083;48.774;8.942;2023-12-20T03:58:18;1.27;;;0.38;;
69030;SDS011;56083;48.774;8.942;2023-12-20T04:00:44;0.20;;;0.20;;
69030;SDS011;56083;48.774;8.942;2023-12-20T04:03:10;0.40;;;0.20;;
69030;SDS011;56083;48.774;8.942;2023-12-20T04:05:38;0.80;;;0.30;;
69030;SDS011;56083;48.774;8.942;2023-12-20T04:08:05;0.40;;;0.30;;
69030;SDS011;56083;48.774;8.942;2023-12-20T04:10:31;0.40;;;0.20;;
69030;SDS011;56083;48.774;8.942;2023-12-20T04:12:57;0.93;;;0.38;;
69030;SDS011;56083;48.774;8.942;2023-12-20T04:15:23;2.33;;;0.60;;
69030;SDS011;56083;48.774;8.942;2023-12-20T04:17:52;2.95;;;1.20;;
69030;SDS011;56083;48.774;8.942;2023-12-20T04:20:18;1.15;;;0.50;;
69030;SDS011;56083;48.774;8.942;2023-12-20T04:22:44;0.38;;;0.22;;
69030;SDS011;56083;48.774;8.942;2023-12-20T04:25:10;2.08;;;1.08;;
69030;SDS011;56083;48.774;8.942;2023-12-20T04:27:36;0.20;;;0.20;;
69030;SDS011;56083;48.774;8.942;2023-12-20T04:30:02;0.40;;;0.30;;
69030;SDS011;56083;48.774;8.942;2023-12-20T04:32:28;1.73;;;0.28;;
69030;SDS011;56083;48.774;8.942;2023-12-20T04:34:54;0.32;;;0.20;;
69030;SDS011;56083;48.774;8.942;2023-12-20T04:37:20;0.30;;;0.30;;
69030;SDS011;56083;48.774;8.942;2023-12-20T04:39:46;1.45;;;0.60;;
69030;SDS011;56083;48.774;8.942;2023-12-20T04:42:12;2.67;;;1.13;;
69030;SDS011;56083;48.774;8.942;2023-12-20T04:44:38;3.80;;;1.58;;
69030;SDS011;56083;48.774;8.942;2023-12-20T04:47:04;2.45;;;1.42;;
69030;SDS011;56083;48.774;8.942;2023-12-20T04:49:30;1.35;;;0.60;;
69030;SDS011;56083;48.774;8.942;2023-12-20T04:51:56;1.30;;;0.63;;
69030;SDS011;56083;48.774;8.942;2023-12-20T04:54:22;0.90;;;0.40;;
69030;SDS011;56083;48.774;8.942;2023-12-20T04:56:49;1.63;;;0.60;;
69030;SDS011;56083;48.774;8.942;2023-12-20T04:59:15;1.73;;;0.90;;
69030;SDS011;56083;48.774;8.942;2023-12-20T05:01:41;2.65;;;1.00;;
69030;SDS011;56083;48.774;8.942;2023-12-20T05:04:07;1.90;;;0.70;;
69030;SDS011;56083;48.774;8.942;2023-12-20T05:06:33;1.52;;;0.63;;
69030;SDS011;56083;48.774;8.942;2023-12-20T05:08:59;1.85;;;0.70;;
69030;SDS011;56083;48.774;8.942;2023-12-20T05:11:25;2.92;;;1.40;;
69030;SDS011;56083;48.774;8.942;2023-12-20T05:13:51;5.38;;;1.88;;
69030;SDS011;56083;48.774;8.942;2023-12-20T05:16:17;3.92;;;1.60;;
69030;SDS011;56083;48.774;8.942;2023-12-20T05:18:43;1.17;;;0.73;;
69030;SDS011;56083;48.774;8.942;2023-12-20T05:21:09;1.25;;;0.63;;
69030;SDS011;56083;48.774;8.942;2023-12-20T05:23:35;1.17;;;0.80;;
69030;SDS011;56083;48.774;8.942;2023-12-20T05:26:01;2.25;;;0.80;;
69030;SDS011;56083;48.774;8.942;2023-12-20T05:28:27;3.05;;;0.77;;
69030;SDS011;56083;48.774;8.942;2023-12-20T05:30:53;0.52;;;0.50;;
69030;SDS011;56083;48.774;8.942;2023-12-20T05:33:19;3.55;;;0.60;;
69030;SDS011;56083;48.774;8.942;2023-12-20T05:35:45;1.38;;;0.50;;
69030;SDS011;56083;48.774;8.942;2023-12-20T05:38:11;1.13;;;0.60;;
69030;SDS011;56083;48.774;8.942;2023-12-20T05:40:38;0.82;;;0.60;;
69030;SDS011;56083;48.774;8.942;2023-12-20T05:43:04;1.70;;;0.70;;
69030;SDS011;56083;48.774;8.942;2023-12-20T05:45:30;0.90;;;0.77;;
69030;SDS011;56083;48.774;8.942;2023-12-20T05:47:55;1.77;;;1.10;;
69030;SDS011;56083;48.774;8.942;2023-12-20T05:50:22;1.02;;;0.90;;
69030;SDS011;56083;48.774;8.942;2023-12-20T05:52:48;1.80;;;0.90;;
69030;SDS011;56083;48.774;8.942;2023-12-20T05:55:14;1.85;;;0.80;;
69030;SDS011;56083;48.774;8.942;2023-12-20T05:57:40;5.88;;;1.23;;
69030;SDS011;56083;48.774;8.942;2023-12-20T06:00:08;19.90;;;8.75;;
69030;SDS011;56083;48.774;8.942;2023-12-20T06:02:34;33.58;;;15.80;;
69030;SDS011;56083;48.774;8.942;2023-12-20T06:05:03;14.73;;;8.45;;
69030;SDS011;56083;48.774;8.942;2023-12-20T06:07:29;3.08;;;1.92;;
69030;SDS011;56083;48.774;8.942;2023-12-20T06:09:55;2.67;;;1.90;;
69030;SDS011;56083;48.774;8.942;2023-12-20T06:12:21;4.65;;;3.25;;
69030;SDS011;56083;48.774;8.942;2023-12-20T06:14:47;6.15;;;2.42;;
69030;SDS011;56083;48.774;8.942;2023-12-20T06:17:13;3.78;;;1.90;;
69030;SDS011;56083;48.774;8.942;2023-12-20T06:19:40;2.30;;;1.50;;
69030;SDS011;56083;48.774;8.942;2023-12-20T06:22:07;2.92;;;2.40;;
69030;SDS011;56083;48.774;8.942;2023-12-20T06:24:33;2.10;;;1.50;;
69030;SDS011;56083;48.774;8.942;2023-12-20T06:26:59;2.33;;;1.38;;
69030;SDS011;56083;48.774;8.942;2023-12-20T06:29:26;1.30;;;1.10;;
69030;SDS011;56083;48.774;8.942;2023-12-20T06:31:53;4.25;;;1.33;;
69030;SDS011;56083;48.774;8.942;2023-12-20T06:34:19;2.72;;;1.20;;
69030;SDS011;56083;48.774;8.942;2023-12-20T06:36:45;2.78;;;1.73;;
69030;SDS011;56083;48.774;8.942;2023-12-20T06:39:11;2.22;;;1.95;;
69030;SDS011;56083;48.774;8.942;2023-12-20T06:41:38;5.13;;;1.90;;
69030;SDS011;56083;48.774;8.942;2023-12-20T06:44:04;2.35;;;1.17;;
69030;SDS011;56083;48.774;8.942;2023-12-20T06:46:30;3.00;;;1.50;;
69030;SDS011;56083;48.774;8.942;2023-12-20T06:48:56;3.17;;;1.80;;
69030;SDS011;56083;48.774;8.942;2023-12-20T06:51:22;5.68;;;1.75;;
69030;SDS011;56083;48.774;8.942;2023-12-20T06:53:50;4.28;;;2.05;;
69030;SDS011;56083;48.774;8.942;2023-12-20T06:56:16;3.50;;;1.65;;
69030;SDS011;56083;48.774;8.942;2023-12-20T06:58:42;3.00;;;1.23;;
69030;SDS011;56083;48.774;8.942;2023-12-20T07:01:12;1.42;;;0.80;;
69030;SDS011;56083;48.774;8.942;2023-12-20T07:03:38;4.13;;;1.30;;
69030;SDS011;56083;48.774;8.942;2023-12-20T07:06:05;1.30;;;1.00;;
69030;SDS011;56083;48.774;8.942;2023-12-20T07:08:31;3.40;;;1.70;;
69030;SDS011;56083;48.774;8.942;2023-12-20T07:10:57;2.97;;;1.88;;
69030;SDS011;56083;48.774;8.942;2023-12-20T07:13:23;3.40;;;2.40;;
69030;SDS011;56083;48.774;8.942;2023-12-20T07:15:49;5.53;;;2.42;;
69030;SDS011;56083;48.774;8.942;2023-12-20T07:18:15;2.97;;;2.50;;
69030;SDS011;56083;48.774;8.942;2023-12-20T07:20:42;3.90;;;2.47;;
69030;SDS011;56083;48.774;8.942;2023-12-20T07:23:08;5.15;;;2.50;;
69030;SDS011;56083;48.774;8.942;2023-12-20T07:25:34;4.82;;;3.17;;
69030;SDS011;56083;48.774;8.942;2023-12-20T07:28:00;5.70;;;3.78;;
69030;SDS011;56083;48.774;8.942;2023-12-20T07:30:26;6.05;;;3.72;;
69030;SDS011;56083;48.774;8.942;2023-12-20T07:32:53;6.85;;;3.67;;
69030;SDS011;56083;48.774;8.942;2023-12-20T07:35:19;6.88;;;3.80;;
69030;SDS011;56083;48.774;8.942;2023-12-20T07:37:45;7.35;;;3.80;;
69030;SDS011;56083;48.774;8.942;2023-12-20T07:40:11;7.35;;;3.53;;
69030;SDS011;56083;48.774;8.942;2023-12-20T07:42:37;6.40;;;3.88;;
69030;SDS011;56083;48.774;8.942;2023-12-20T07:45:03;7.75;;;3.75;;
69030;SDS011;56083;48.774;8.942;2023-12-20T07:47:29;8.55;;;4.55;;
69030;SDS011;56083;48.774;8.942;2023-12-20T07:49:55;7.60;;;3.88;;
69030;SDS011;56083;48.774;8.942;2023-12-20T07:52:21;6.75;;;4.57;;
69030;SDS011;56083;48.774;8.942;2023-12-20T07:54:47;8.52;;;4.50;;
69030;SDS011;56083;48.774;8.942;2023-12-20T07:57:13;8.93;;;4.90;;
69030;SDS011;56083;48.774;8.942;2023-12-20T07:59:39;13.05;;;5.30;;
69030;SDS011;56083;48.774;8.942;2023-12-20T08:02:05;8.32;;;4.78;;
69030;SDS011;56083;48.774;8.942;2023-12-20T08:04:31;14.23;;;5.43;;
69030;SDS011;56083;48.774;8.942;2023-12-20T08:06:58;11.07;;;4.90;;
69030;SDS011;56083;48.774;8.942;2023-12-20T08:09:25;8.75;;;5.13;;
69030;SDS011;56083;48.774;8.942;2023-12-20T08:11:51;7.47;;;4.93;;
69030;SDS011;56083;48.774;8.942;2023-12-20T08:14:17;5.40;;;4.38;;
69030;SDS011;56083;48.774;8.942;2023-12-20T08:16:43;7.60;;;4.45;;
69030;SDS011;56083;48.774;8.942;2023-12-20T08:19:09;5.30;;;4.22;;
69030;SDS011;56083;48.774;8.942;2023-12-20T08:21:35;10.40;;;4.47;;
69030;SDS011;56083;48.774;8.942;2023-12-20T08:24:01;11.63;;;4.60;;
69030;SDS011;56083;48.774;8.942;2023-12-20T08:26:27;8.70;;;4.28;;
69030;SDS011;56083;48.774;8.942;2023-12-20T08:28:53;5.90;;;3.30;;
69030;SDS011;56083;48.774;8.942;2023-12-20T08:31:19;6.80;;;3.55;;
69030;SDS011;56083;48.774;8.942;2023-12-20T08:33:46;5.35;;;3.00;;
69030;SDS011;56083;48.774;8.942;2023-12-20T08:38:57;5.25;;;2.83;;
69030;SDS011;56083;48.774;8.942;2023-12-20T08:41:25;5.43;;;3.00;;
69030;SDS011;56083;48.774;8.942;2023-12-20T08:43:54;4.38;;;2.10;;
69030;SDS011;56083;48.774;8.942;2023-12-20T08:46:22;8.80;;;2.08;;
69030;SDS011;56083;48.774;8.942;2023-12-20T08:48:48;8.90;;;1.80;;
69030;SDS011;56083;48.774;8.942;2023-12-20T08:51:14;5.57;;;1.80;;
69030;SDS011;56083;48.774;8.942;2023-12-20T08:53:40;7.22;;;1.95;;
69030;SDS011;56083;48.774;8.942;2023-12-20T08:56:06;6.65;;;1.83;;
69030;SDS011;56083;48.774;8.942;2023-12-20T08:58:32;5.18;;;1.40;;
69030;SDS011;56083;48.774;8.942;2023-12-20T09:01:00;5.30;;;1.80;;
69030;SDS011;56083;48.774;8.942;2023-12-20T09:03:26;4.85;;;1.20;;
69030;SDS011;56083;48.774;8.942;2023-12-20T09:05:52;7.40;;;1.42;;
69030;SDS011;56083;48.774;8.942;2023-12-20T09:08:18;5.28;;;1.15;;
69030;SDS011;56083;48.774;8.942;2023-12-20T09:10:44;7.85;;;1.33;;
69030;SDS011;56083;48.774;8.942;2023-12-20T09:13:10;4.32;;;1.40;;
69030;SDS011;56083;48.774;8.942;2023-12-20T09:15:36;9.07;;;1.33;;
69030;SDS011;56083;48.774;8.942;2023-12-20T09:18:02;5.25;;;1.15;;
69030;SDS011;56083;48.774;8.942;2023-12-20T09:20:28;6.75;;;1.48;;
69030;SDS011;56083;48.774;8.942;2023-12-20T09:22:55;5.82;;;1.63;;
69030;SDS011;56083;48.774;8.942;2023-12-20T09:25:21;8.30;;;1.42;;
69030;SDS011;56083;48.774;8.942;2023-12-20T09:27:48;8.25;;;1.52;;
69030;SDS011;56083;48.774;8.942;2023-12-20T09:30:14;6.28;;;1.70;;
69030;SDS011;56083;48.774;8.942;2023-12-20T09:32:40;9.73;;;1.90;;
69030;SDS011;56083;48.774;8.942;2023-12-20T09:35:06;8.07;;;1.70;;
69030;SDS011;56083;48.774;8.942;2023-12-20T09:37:33;7.43;;;1.83;;
69030;SDS011;56083;48.774;8.942;2023-12-20T09:39:59;14.50;;;2.15;;
69030;SDS011;56083;48.774;8.942;2023-12-20T09:44:58;10.07;;;1.58;;
69030;SDS011;56083;48.774;8.942;2023-12-20T09:47:26;11.18;;;1.90;;
69030;SDS011;56083;48.774;8.942;2023-12-20T09:49:52;9.18;;;1.27;;
69030;SDS011;56083;48.774;8.942;2023-12-20T09:52:18;8.18;;;1.35;;
69030;SDS011;56083;48.774;8.942;2023-12-20T09:54:45;9.20;;;1.80;;
69030;SDS011;56083;48.774;8.942;2023-12-20T09:57:13;7.18;;;1.23;;
69030;SDS011;56083;48.774;8.942;2023-12-20T09:59:40;8.57;;;1.58;;
69030;SDS011;56083;48.774;8.942;2023-12-20T10:02:06;7.25;;;1.75;;
69030;SDS011;56083;48.774;8.942;2023-12-20T10:04:34;11.20;;;1.65;;
69030;SDS011;56083;48.774;8.942;2023-12-20T10:07:03;9.10;;;1.48;;
69030;SDS011;56083;48.774;8.942;2023-12-20T10:09:31;7.63;;;1.77;;
69030;SDS011;56083;48.774;8.942;2023-12-20T10:11:57;10.73;;;1.88;;
69030;SDS011;56083;48.774;8.942;2023-12-20T10:14:25;7.05;;;1.60;;
69030;SDS011;56083;48.774;8.942;2023-12-20T10:16:51;7.68;;;1.70;;
69030;SDS011;56083;48.774;8.942;2023-12-20T10:19:19;13.52;;;2.50;;
69030;SDS011;56083;48.774;8.942;2023-12-20T10:21:45;9.32;;;1.85;;
69030;SDS011;56083;48.774;8.942;2023-12-20T10:24:16;9.27;;;1.90;;
69030;SDS011;56083;48.774;8.942;2023-12-20T10:26:42;10.60;;;2.00;;
69030;SDS011;56083;48.774;8.942;2023-12-20T10:29:08;14.35;;;2.05;;
69030;SDS011;56083;48.774;8.942;2023-12-20T10:31:36;9.45;;;1.77;;
69030;SDS011;56083;48.774;8.942;2023-12-20T10:34:07;6.22;;;1.55;;
69030;SDS011;56083;48.774;8.942;2023-12-20T10:36:33;9.30;;;1.77;;
69030;SDS011;56083;48.774;8.942;2023-12-20T10:39:01;8.88;;;1.67;;
69030;SDS011;56083;48.774;8.942;2023-12-20T10:44:03;6.97;;;1.55;;
69030;SDS011;56083;48.774;8.942;2023-12-20T10:46:33;8.68;;;1.70;;
69030;SDS011;56083;48.774;8.942;2023-12-20T10:49:04;11.10;;;1.65;;
69030;SDS011;56083;48.774;8.942;2023-12-20T10:51:30;9.32;;;1.75;;
69030;SDS011;56083;48.774;8.942;2023-12-20T10:53:57;14.27;;;2.05;;
69030;SDS011;56083;48.774;8.942;2023-12-20T10:56:23;9.45;;;1.55;;
69030;SDS011;56083;48.774;8.942;2023-12-20T10:58:50;11.23;;;1.70;;
69030;SDS011;56083;48.774;8.942;2023-12-20T11:01:16;13.63;;;2.20;;
69030;SDS011;56083;48.774;8.942;2023-12-20T11:03:49;13.32;;;1.90;;
69030;SDS011;56083;48.774;8.942;2023-12-20T11:09:20;8.80;;;1.70;;
69030;SDS011;56083;48.774;8.942;2023-12-20T11:14:29;7.82;;;1.70;;
69030;SDS011;56083;48.774;8.942;2023-12-20T11:17:07;8.27;;;1.80;;
69030;SDS011;56083;48.774;8.942;2023-12-20T11:19:35;12.52;;;2.80;;
69030;SDS011;56083;48.774;8.942;2023-12-20T11:22:03;8.50;;;1.80;;
69030;SDS011;56083;48.774;8.942;2023-12-20T11:24:31;9.75;;;1.85;;
69030;SDS011;56083;48.774;8.942;2023-12-20T11:26:59;9.50;;;1.92;;
69030;SDS011;56083;48.774;8.942;2023-12-20T11:29:29;10.35;;;1.92;;
69030;SDS011;56083;48.774;8.942;2023-12-20T11:32:00;6.50;;;1.60;;
69030;SDS011;56083;48.774;8.942;2023-12-20T11:34:27;9.35;;;1.70;;
69030;SDS011;56083;48.774;8.942;2023-12-20T11:36:57;11.23;;;1.85;;
69030;SDS011;56083;48.774;8.942;2023-12-20T11:39:24;9.05;;;1.88;;
69030;SDS011;56083;48.774;8.942;2023-12-20T11:41:51;10.85;;;1.63;;
69030;SDS011;56083;48.774;8.942;2023-12-20T11:44:17;11.50;;;2.00;;
69030;SDS011;56083;48.774;8.942;2023-12-20T11:46:44;10.63;;;1.83;;
69030;SDS011;56083;48.774;8.942;2023-12-20T11:49:10;14.50;;;1.80;;
69030;SDS011;56083;48.774;8.942;2023-12-20T11:51:40;11.35;;;2.00;;
69030;SDS011;56083;48.774;8.942;2023-12-20T11:54:06;10.05;;;2.00;;
69030;SDS011;56083;48.774;8.942;2023-12-20T11:56:34;9.18;;;1.90;;
69030;SDS011;56083;48.774;8.942;2023-12-20T11:59:00;7.97;;;1.75;;
69030;SDS011;56083;48.774;8.942;2023-12-20T12:01:26;8.68;;;1.50;;
69030;SDS011;56083;48.774;8.942;2023-12-20T12:04:13;9.40;;;1.73;;
69030;SDS011;56083;48.774;8.942;2023-12-20T12:06:38;11.10;;;1.90;;
69030;SDS011;56083;48.774;8.942;2023-12-20T12:09:04;18.13;;;2.83;;
69030;SDS011;56083;48.774;8.942;2023-12-20T12:11:31;11.70;;;2.10;;
69030;SDS011;56083;48.774;8.942;2023-12-20T12:13:57;9.23;;;1.88;;
69030;SDS011;56083;48.774;8.942;2023-12-20T12:16:23;12.45;;;1.98;;
69030;SDS011;56083;48.774;8.942;2023-12-20T12:18:56;11.05;;;2.00;;
69030;SDS011;56083;48.774;8.942;2023-12-20T12:21:22;10.13;;;1.63;;
69030;SDS011;56083;48.774;8.942;2023-12-20T12:23:48;11.00;;;2.17;;
69030;SDS011;56083;48.774;8.942;2023-12-20T12:26:14;11.05;;;2.03;;
69030;SDS011;56083;48.774;8.942;2023-12-20T12:28:41;9.40;;;1.73;;
69030;SDS011;56083;48.774;8.942;2023-12-20T12:31:07;5.50;;;1.35;;
69030;SDS011;56083;48.774;8.942;2023-12-20T12:33:33;9.98;;;1.75;;
69030;SDS011;56083;48.774;8.942;2023-12-20T12:36:03;6.25;;;1.50;;
69030;SDS011;56083;48.774;8.942;2023-12-20T12:38:32;14.75;;;1.55;;
69030;SDS011;56083;48.774;8.942;2023-12-20T12:40:59;11.02;;;1.67;;
69030;SDS011;56083;48.774;8.942;2023-12-20T12:43:25;7.88;;;1.48;;
69030;SDS011;56083;48.774;8.942;2023-12-20T12:45:51;18.25;;;1.88;;
69030;SDS011;56083;48.774;8.942;2023-12-20T12:48:18;11.77;;;1.60;;
69030;SDS011;56083;48.774;8.942;2023-12-20T12:50:45;9.30;;;1.63;;
69030;SDS011;56083;48.774;8.942;2023-12-20T12:53:11;11.77;;;1.83;;
69030;SDS011;56083;48.774;8.942;2023-12-20T12:55:37;9.80;;;1.92;;
69030;SDS011;56083;48.774;8.942;2023-12-20T12:58:03;9.63;;;2.05;;
69030;SDS011;56083;48.774;8.942;2023-12-20T13:00:29;8.00;;;1.80;;
69030;SDS011;56083;48.774;8.942;2023-12-20T13:02:55;10.00;;;2.40;;
69030;SDS011;56083;48.774;8.942;2023-12-20T13:05:21;6.00;;;1.55;;
69030;SDS011;56083;48.774;8.942;2023-12-20T13:07:47;7.68;;;1.52;;
69030;SDS011;56083;48.774;8.942;2023-12-20T13:10:13;9.88;;;1.20;;
69030;SDS011;56083;48.774;8.942;2023-12-20T13:12:41;11.70;;;1.65;;
69030;SDS011;56083;48.774;8.942;2023-12-20T13:15:07;7.25;;;1.27;;
69030;SDS011;56083;48.774;8.942;2023-12-20T13:17:34;8.00;;;1.15;;
69030;SDS011;56083;48.774;8.942;2023-12-20T13:20:00;7.03;;;1.40;;
69030;SDS011;56083;48.774;8.942;2023-12-20T13:22:26;6.25;;;1.65;;
69030;SDS011;56083;48.774;8.942;2023-12-20T13:24:53;12.45;;;1.58;;
69030;SDS011;56083;48.774;8.942;2023-12-20T13:27:19;6.68;;;1.52;;
69030;SDS011;56083;48.774;8.942;2023-12-20T13:29:45;9.93;;;1.75;;
69030;SDS011;56083;48.774;8.942;2023-12-20T13:32:11;7.60;;;1.52;;
69030;SDS011;56083;48.774;8.942;2023-12-20T13:34:37;8.18;;;1.60;;
69030;SDS011;56083;48.774;8.942;2023-12-20T13:37:03;8.88;;;1.70;;
69030;SDS011;56083;48.774;8.942;2023-12-20T13:39:29;13.35;;;1.90;;
69030;SDS011;56083;48.774;8.942;2023-12-20T13:44:26;10.55;;;2.30;;
69030;SDS011;56083;48.774;8.942;2023-12-20T13:47:12;11.35;;;2.88;;
69030;SDS011;56083;48.774;8.942;2023-12-20T13:49:39;8.93;;;1.90;;
69030;SDS011;56083;48.774;8.942;2023-12-20T13:52:07;10.73;;;2.05;;
69030;SDS011;56083;48.774;8.942;2023-12-20T13:54:33;11.73;;;2.13;;
69030;SDS011;56083;48.774;8.942;2023-12-20T13:57:01;14.90;;;2.13;;
69030;SDS011;56083;48.774;8.942;2023-12-20T13:59:30;5.57;;;1.80;;
69030;SDS011;56083;48.774;8.942;2023-12-20T14:02:00;9.68;;;2.15;;
69030;SDS011;56083;48.774;8.942;2023-12-20T14:04:37;12.60;;;2.45;;
69030;SDS011;56083;48.774;8.942;2023-12-20T14:07:06;9.25;;;2.15;;
69030;SDS011;56083;48.774;8.942;2023-12-20T14:09:33;7.78;;;1.70;;
69030;SDS011;56083;48.774;8.942;2023-12-20T14:12:00;13.50;;;2.30;;
69030;SDS011;56083;48.774;8.942;2023-12-20T14:14:29;9.43;;;1.58;;
69030;SDS011;56083;48.774;8.942;2023-12-20T14:16:56;11.18;;;1.83;;
69030;SDS011;56083;48.774;8.942;2023-12-20T14:19:25;9.82;;;1.65;;
69030;SDS011;56083;48.774;8.942;2023-12-20T14:21:57;7.80;;;1.60;;
69030;SDS011;56083;48.774;8.942;2023-12-20T14:24:28;8.75;;;1.40;;
69030;SDS011;56083;48.774;8.942;2023-12-20T14:27:02;10.45;;;2.05;;
69030;SDS011;56083;48.774;8.942;2023-12-20T14:29:29;12.00;;;1.95;;
69030;SDS011;56083;48.774;8.942;2023-12-20T14:31:58;12.38;;;1.90;;
69030;SDS011;56083;48.774;8.942;2023-12-20T14:34:29;13.55;;;1.70;;
69030;SDS011;56083;48.774;8.942;2023-12-20T14:36:55;7.47;;;1.40;;
69030;SDS011;56083;48.774;8.942;2023-12-20T14:39:22;13.18;;;1.70;;
69030;SDS011;56083;48.774;8.942;2023-12-20T14:41:48;8.88;;;1.63;;
69030;SDS011;56083;48.774;8.942;2023-12-20T14:44:14;8.75;;;2.10;;
69030;SDS011;56083;48.774;8.942;2023-12-20T14:46:42;12.18;;;1.80;;
69030;SDS011;56083;48.774;8.942;2023-12-20T14:49:08;9.27;;;2.10;;
69030;SDS011;56083;48.774;8.942;2023-12-20T14:51:34;10.80;;;1.90;;
69030;SDS011;56083;48.774;8.942;2023-12-20T14:54:02;13.43;;;1.67;;
69030;SDS011;56083;48.774;8.942;2023-12-20T14:56:28;12.55;;;2.63;;
69030;SDS011;56083;48.774;8.942;2023-12-20T14:58:54;12.50;;;2.63;;